Aérodrome :
LOGIN :

S'inscrire | Disclaimer

   EN    FR    IT 

 










Légende :    VFR   VFR Marginal   IFR   IFR Intensif   IFR Très Intensif
Visi : 
Plafond : 
>= 8 km
>= 3000ft
5 à 8 km
1000 à 3000 ft
1500m à 5 km
500 à 1000 ft
800 à 1500m
200 à 500 ft
< 800m
< 200 ft
Symboles :   Orages  Brouillard  Fortes neiges  Fortes précipitations  Vent > 20 kt
SIGMETs :   Divers  Orages  Givrage  Turbulence  Onde Orograph.  Cendres Volcan.







- Altitude de l'aérodrome : 82 ft
- Code IATA : AAR


EKAH - Aarhus Tirstrup

DERNIER METAR :
  • 221250Z AUTO 17007KT 110V220 9999NDV FEW140/// 20/13 Q1023

METARs EXPIRÉS :
  • 221220Z AUTO 17008KT 120V230 9999NDV FEW160/// 21/13 Q1023
  • 221150Z AUTO 18007KT 110V250 9999NDV FEW044/// FEW140/// 21/13 Q1024
  • 221120Z AUTO 18008KT 130V240 9999NDV SCT140/// 21/12 Q1024
  • 221050Z AUTO 19006KT 110V240 9999NDV NCD 20/12 Q1024
  • 221020Z AUTO 18007KT 140V260 9999NDV NCD 20/13 Q1025

TAF TAF EKAH
Valide du 22 à 12h jusqu'au 23 à 12h UTC


221104Z 2212/2312 19010KT 9999 SCT030
Pas de NOTAMs connus pour ce terrain.



MET'MAP, la Météo Aéronautique d'un coup d'oeil ! - Copyright ORBIFLY Décembre 2007 - Disclaimer

ORBIFLY MET'MAP TEAM :

Programmation & Développement : Alexandra Zaïnal
Conception & Développement : Baudouin d'Aumeries
Co-Programmation & Développement : Marc-Olivier Méhu
Soutien technique & logistique : Manuel Goepfert

Contact : metmap@orbifly.com




SOURCES & CREDITS :

   NOAA